Observation data for Seminole on 01/12/2018      Previous  Date  Next       Current Mesonet Observations  Soil Data  Daily Summary Page  Observations in Plain Language
KSM1 120600Z 03000KT M02/M10 A3029 RMK A01 T10211097  RH  057%=      5-min Rain = 0
KSM1 120605Z 00000KT M02/M10 A3028 RMK A01 T10191099  RH  055%=      5-min Rain = 0
KSM1 120610Z 00000KT M02/M10 A3028 RMK A01 T10191103  RH  054%=      5-min Rain = 0
KSM1 120615Z 01000KT M02/M11 A3028 RMK A01 T10221105  RH  054%=      5-min Rain = 0
KSM1 120620Z 35001KT M03/M10 A3028 RMK A01 T10261103  RH  056%=      5-min Rain = 0
KSM1 120625Z 34000KT M03/M10 A3028 RMK A01 T10311103  RH  058%=      5-min Rain = 0
KSM1 120630Z 33000KT M03/M10 A3028 RMK A01 T10301103  RH  058%=      5-min Rain = 0
KSM1 120635Z 00000KT M03/M10 A3028 RMK A01 T10271104  RH  056%=      5-min Rain = 0
KSM1 120640Z 33000KT M03/M11 A3028 RMK A01 T10281108  RH  055%=      5-min Rain = 0
KSM1 120645Z 32001KT M03/M11 A3028 RMK A01 T10341111  RH  056%=      5-min Rain = 0
KSM1 120650Z 32001KT M04/M11 A3027 RMK A01 T10401111  RH  058%=      5-min Rain = 0
KSM1 120655Z 32001KT M04/M11 A3027 RMK A01 T10381109  RH  059%=      5-min Rain = 0
KSM1 120700Z 32001KT M04/M11 A3027 RMK A01 T10361107  RH  059%=      5-min Rain = 0
KSM1 120705Z 32000KT M04/M11 A3027 RMK A01 T10361108  RH  058%=      5-min Rain = 0
KSM1 120710Z 00000KT M03/M11 A3027 RMK A01 T10341108  RH  057%=      5-min Rain = 0
KSM1 120715Z 00000KT M03/M11 A3027 RMK A01 T10311108  RH  056%=      5-min Rain = 0
KSM1 120720Z 26001KT M03/M11 A3027 RMK A01 T10311110  RH  055%=      5-min Rain = 0
KSM1 120725Z 25002KT M03/M11 A3026 RMK A01 T10311109  RH  056%=      5-min Rain = 0
KSM1 120730Z 25001KT M03/M11 A3026 RMK A01 T10321113  RH  054%=      5-min Rain = 0
KSM1 120735Z 23001KT M04/M12 A3026 RMK A01 T10351116  RH  054%=      5-min Rain = 0
KSM1 120740Z 21002KT M04/M12 A3025 RMK A01 T10371117  RH  055%=      5-min Rain = 0
KSM1 120745Z 22002KT M04/M12 A3026 RMK A01 T10391116  RH  056%=      5-min Rain = 0
KSM1 120750Z 21002KT M04/M12 A3026 RMK A01 T10401115  RH  057%=      5-min Rain = 0
KSM1 120755Z 22001KT M04/M12 A3026 RMK A01 T10401115  RH  057%=      5-min Rain = 0
KSM1 120800Z 20001KT M05/M12 A3025 RMK A01 T10451119  RH  057%=      5-min Rain = 0
KSM1 120805Z 18000KT M05/M12 A3025 RMK A01 T10511121  RH  059%=      5-min Rain = 0
KSM1 120810Z 00000KT M05/M11 A3025 RMK A01 T10521114  RH  062%=      5-min Rain = 0
KSM1 120815Z 30001KT M05/M11 A3026 RMK A01 T10501110  RH  064%=      5-min Rain = 0
KSM1 120820Z 29002KT M05/M11 A3026 RMK A01 T10461106  RH  064%=      5-min Rain = 0
KSM1 120825Z 29003KT M04/M11 A3026 RMK A01 T10431107  RH  062%=      5-min Rain = 0
KSM1 120830Z 27002KT M04/M10 A3026 RMK A01 T10411101  RH  064%=      5-min Rain = 0
KSM1 120835Z 27002KT M04/M10 A3026 RMK A01 T10391101  RH  063%=      5-min Rain = 0
KSM1 120840Z 27003KT M04/M10 A3026 RMK A01 T10371100  RH  062%=      5-min Rain = 0
KSM1 120845Z 27003KT M03/M10 A3027 RMK A01 T10341104  RH  059%=      5-min Rain = 0
KSM1 120850Z 27003KT M03/M11 A3027 RMK A01 T10341111  RH  056%=      5-min Rain = 0
KSM1 120855Z 27003KT M04/M11 A3027 RMK A01 T10371114  RH  056%=      5-min Rain = 0
KSM1 120900Z 27003KT M04/M12 A3026 RMK A01 T10401117  RH  056%=      5-min Rain = 0
KSM1 120905Z 27003KT M04/M12 A3026 RMK A01 T10401116  RH  056%=      5-min Rain = 0
KSM1 120910Z 28002KT M04/M12 A3026 RMK A01 T10421118  RH  056%=      5-min Rain = 0
KSM1 120915Z 28002KT M05/M12 A3026 RMK A01 T10451118  RH  058%=      5-min Rain = 0
KSM1 120920Z 29002KT M05/M12 A3026 RMK A01 T10471116  RH  059%=      5-min Rain = 0
KSM1 120925Z 28002KT M05/M11 A3026 RMK A01 T10471108  RH  063%=      5-min Rain = 0
KSM1 120930Z 28002KT M05/M10 A3025 RMK A01 T10461101  RH  066%=      5-min Rain = 0
KSM1 120935Z 26002KT M05/M10 A3025 RMK A01 T10451101  RH  066%=      5-min Rain = 0
KSM1 120940Z 23002KT M05/M10 A3024 RMK A01 T10451104  RH  064%=      5-min Rain = 0
KSM1 120945Z 22002KT M05/M10 A3024 RMK A01 T10451104  RH  064%=      5-min Rain = 0
KSM1 120950Z 22003KT M04/M11 A3024 RMK A01 T10441106  RH  063%=      5-min Rain = 0
KSM1 120955Z 21004KT M05/M11 A3024 RMK A01 T10451111  RH  061%=      5-min Rain = 0
KSM1 121000Z 21004KT M05/M11 A3024 RMK A01 T10461114  RH  060%=      5-min Rain = 0
KSM1 121005Z 21004KT M04/M11 A3023 RMK A01 T10441113  RH  059%=      5-min Rain = 0
KSM1 121010Z 21003KT M04/M11 A3023 RMK A01 T10411112  RH  058%=      5-min Rain = 0
KSM1 121015Z 22003KT M04/M11 A3023 RMK A01 T10401114  RH  057%=      5-min Rain = 0
KSM1 121020Z 23002KT M04/M12 A3023 RMK A01 T10441118  RH  057%=      5-min Rain = 0
KSM1 121025Z 23002KT M05/M12 A3023 RMK A01 T10511121  RH  059%=      5-min Rain = 0
KSM1 121030Z 25002KT M05/M12 A3023 RMK A01 T10531116  RH  062%=      5-min Rain = 0
KSM1 121035Z 26004KT M05/M11 A3024 RMK A01 T10511113  RH  063%=      5-min Rain = 0
KSM1 121040Z 26003KT M05/M11 A3023 RMK A01 T10501113  RH  062%=      5-min Rain = 0
KSM1 121045Z 25003KT M05/M11 A3023 RMK A01 T10511114  RH  062%=      5-min Rain = 0
KSM1 121050Z 25004KT M05/M11 A3023 RMK A01 T10501112  RH  062%=      5-min Rain = 0
KSM1 121055Z 25004KT M05/M11 A3023 RMK A01 T10471113  RH  061%=      5-min Rain = 0
KSM1 121100Z 25003KT M05/M11 A3023 RMK A01 T10471114  RH  061%=      5-min Rain = 0
KSM1 121105Z 23004KT M05/M12 A3022 RMK A01 T10481115  RH  060%=      5-min Rain = 0
KSM1 121110Z 22005KT M05/M12 A3022 RMK A01 T10481117  RH  059%=      5-min Rain = 0
KSM1 121115Z 22004KT M05/M12 A3022 RMK A01 T10481116  RH  060%=      5-min Rain = 0
KSM1 121120Z 21004KT M05/M12 A3021 RMK A01 T10461116  RH  059%=      5-min Rain = 0
KSM1 121125Z 24003KT M04/M12 A3022 RMK A01 T10441115  RH  059%=      5-min Rain = 0
KSM1 121130Z 23003KT M04/M12 A3022 RMK A01 T10431116  RH  058%=      5-min Rain = 0
KSM1 121135Z 23004KT M05/M12 A3022 RMK A01 T10451118  RH  058%=      5-min Rain = 0
KSM1 121140Z 23003KT M05/M12 A3022 RMK A01 T10461116  RH  059%=      5-min Rain = 0
KSM1 121145Z 23003KT M05/M12 A3023 RMK A01 T10501121  RH  058%=      5-min Rain = 0
KSM1 121150Z 22003KT M06/M12 A3022 RMK A01 T10561121  RH  061%=      5-min Rain = 0
KSM1 121155Z 21004KT M05/M11 A3022 RMK A01 T10511114  RH  063%=      5-min Rain = 0
KSM1 121200Z 21005KT M04/M11 A3022 RMK A01 T10431112  RH  059%=      5-min Rain = 0
KSM1 121205Z 20005KT M04/M11 A3022 RMK A01 T10381113  RH  057%=      5-min Rain = 0
KSM1 121210Z 19004KT M04/M11 A3022 RMK A01 T10361113  RH  056%=      5-min Rain = 0
KSM1 121215Z 19004KT M03/M11 A3022 RMK A01 T10321111  RH  055%=      5-min Rain = 0
KSM1 121220Z 19006KT M03/M11 A3022 RMK A01 T10301109  RH  055%=      5-min Rain = 0
KSM1 121225Z 19007KT M03/M11 A3022 RMK A01 T10311108  RH  056%=      5-min Rain = 0
KSM1 121230Z 18006KT M03/M11 A3022 RMK A01 T10341105  RH  058%=      5-min Rain = 0
KSM1 121235Z 18006KT M04/M10 A3022 RMK A01 T10351104  RH  059%=      5-min Rain = 0
KSM1 121240Z 18006KT M04/M10 A3022 RMK A01 T10351104  RH  060%=      5-min Rain = 0
KSM1 121245Z 18005KT M04/M10 A3022 RMK A01 T10351104  RH  059%=      5-min Rain = 0
KSM1 121250Z 18005KT M04/M10 A3022 RMK A01 T10351104  RH  060%=      5-min Rain = 0
KSM1 121255Z 18006KT M04/M11 A3022 RMK A01 T10361105  RH  060%=      5-min Rain = 0
KSM1 121300Z 18006KT M04/M11 A3023 RMK A01 T10381106  RH  060%=      5-min Rain = 0
KSM1 121305Z 18007KT M04/M10 A3022 RMK A01 T10411104  RH  062%=      5-min Rain = 0
KSM1 121310Z 18007KT M04/M10 A3022 RMK A01 T10441104  RH  064%=      5-min Rain = 0
KSM1 121315Z 18005KT M04/M10 A3023 RMK A01 T10441103  RH  064%=      5-min Rain = 0
KSM1 121320Z 18004KT M04/M10 A3024 RMK A01 T10441103  RH  064%=      5-min Rain = 0
KSM1 121325Z 18003KT M04/M10 A3024 RMK A01 T10431103  RH  064%=      5-min Rain = 0
KSM1 121330Z 18003KT M04/M10 A3024 RMK A01 T10421104  RH  063%=      5-min Rain = 0
KSM1 121335Z 19004KT M04/M10 A3024 RMK A01 T10401103  RH  062%=      5-min Rain = 0
KSM1 121340Z 18005KT M04/M10 A3024 RMK A01 T10361104  RH  060%=      5-min Rain = 0
KSM1 121345Z 18006KT M04/M11 A3024 RMK A01 T10361107  RH  059%=      5-min Rain = 0
KSM1 121350Z 18006KT M04/M11 A3024 RMK A01 T10371109  RH  058%=      5-min Rain = 0
KSM1 121355Z 16005KT M04/M11 A3024 RMK A01 T10421109  RH  061%=      5-min Rain = 0
KSM1 121400Z 15006KT M05/M11 A3025 RMK A01 T10461109  RH  062%=      5-min Rain = 0
KSM1 121405Z 13007KT M05/M11 A3025 RMK A01 T10491112  RH  062%=      5-min Rain = 0
KSM1 121410Z 14007KT M05/M11 A3025 RMK A01 T10511110  RH  064%=      5-min Rain = 0
KSM1 121415Z 15007KT M05/M11 A3024 RMK A01 T10501107  RH  065%=      5-min Rain = 0
KSM1 121420Z 15006KT M05/M10 A3024 RMK A01 T10501104  RH  066%=      5-min Rain = 0
KSM1 121425Z 15005KT M05/M10 A3024 RMK A01 T10491103  RH  067%=      5-min Rain = 0
KSM1 121430Z 16004KT M05/M10 A3024 RMK A01 T10461100  RH  067%=      5-min Rain = 0
KSM1 121435Z 16005KT M04/M10 A3024 RMK A01 T10441098  RH  067%=      5-min Rain = 0
KSM1 121440Z 16005KT M04/M10 A3024 RMK A01 T10401096  RH  066%=      5-min Rain = 0
KSM1 121445Z 16007KT M04/M09 A3023 RMK A01 T10361094  RH  065%=      5-min Rain = 0
KSM1 121450Z 16008KT M03/M09 A3023 RMK A01 T10301091  RH  064%=      5-min Rain = 0
KSM1 121455Z 16009KT M03/M09 A3023 RMK A01 T10251091  RH  061%=      5-min Rain = 0
KSM1 121500Z 16008KT M02/M09 A3024 RMK A01 T10211092  RH  059%=      5-min Rain = 0
KSM1 121505Z 15007KT M02/M09 A3024 RMK A01 T10171091  RH  058%=      5-min Rain = 0
KSM1 121510Z 15008KT M01/M09 A3024 RMK A01 T10141091  RH  057%=      5-min Rain = 0
KSM1 121515Z 15007KT M01/M09 A3024 RMK A01 T10101089  RH  056%=      5-min Rain = 0
KSM1 121520Z 16008KT M01/M09 A3024 RMK A01 T10061088  RH  055%=      5-min Rain = 0
KSM1 121525Z 15008KT M00/M09 A3024 RMK A01 T10021085  RH  054%=      5-min Rain = 0
KSM1 121530Z 16008KT 00/M08 A3024 RMK A01 T00021084  RH  053%=      5-min Rain = 0
KSM1 121535Z 16010KT 01/M09 A3023 RMK A01 T00051085  RH  051%=      5-min Rain = 0
KSM1 121540Z 16010KT 01/M09 A3023 RMK A01 T00091085  RH  050%=      5-min Rain = 0
KSM1 121545Z 16011KT 01/M09 A3023 RMK A01 T00121089  RH  047%=      5-min Rain = 0
KSM1 121550Z 16011KT 02/M09 A3024 RMK A01 T00151090  RH  046%=      5-min Rain = 0
KSM1 121555Z 16012KT 02/M09 A3023 RMK A01 T00171094  RH  044%=      5-min Rain = 0
KSM1 121600Z 16011KT 02/M09 A3023 RMK A01 T00201088  RH  045%=      5-min Rain = 0
KSM1 121605Z 16010KT 02/M09 A3023 RMK A01 T00241089  RH  044%=      5-min Rain = 0
KSM1 121610Z 16010KT 03/M09 A3023 RMK A01 T00281088  RH  043%=      5-min Rain = 0
KSM1 121615Z 16012KT 03/M09 A3023 RMK A01 T00321092  RH  040%=      5-min Rain = 0
KSM1 121620Z 17014KT 04/M10 A3023 RMK A01 T00371097  RH  037%=      5-min Rain = 0
KSM1 121625Z 17014KT 04/M10 A3023 RMK A01 T00391104  RH  035%=      5-min Rain = 0
KSM1 121630Z 17013KT 04/M10 A3023 RMK A01 T00421103  RH  034%=      5-min Rain = 0
KSM1 121635Z 16011KT 05/M10 A3024 RMK A01 T00461100  RH  034%=      5-min Rain = 0
KSM1 121640Z 16012KT 05/M10 A3024 RMK A01 T00481101  RH  034%=      5-min Rain = 0
KSM1 121645Z 16011G16KT 05/M10 A3024 RMK A01 T00511104  RH  032%=      5-min Rain = 0
KSM1 121650Z 17012KT 05/M11 A3024 RMK A01 T00541109  RH  030%=      5-min Rain = 0
KSM1 121655Z 16012KT 06/M10 A3024 RMK A01 T00561104  RH  031%=      5-min Rain = 0
KSM1 121700Z 16010KT 06/M11 A3024 RMK A01 T00571108  RH  030%=      5-min Rain = 0
KSM1 121705Z 16011KT 06/M10 A3024 RMK A01 T00611104  RH  030%=      5-min Rain = 0
KSM1 121710Z 15011KT 06/M10 A3023 RMK A01 T00611101  RH  031%=      5-min Rain = 0
KSM1 121715Z 16010G15KT 07/M10 A3023 RMK A01 T00651102  RH  029%=      5-min Rain = 0
KSM1 121720Z 16011G16KT 07/M10 A3023 RMK A01 T00681100  RH  029%=      5-min Rain = 0
KSM1 121725Z 17010KT 07/M10 A3023 RMK A01 T00681104  RH  028%=      5-min Rain = 0
KSM1 121730Z 16010G15KT 07/M10 A3022 RMK A01 T00711099  RH  029%=      5-min Rain = 0
KSM1 121735Z 16012G17KT 07/M10 A3022 RMK A01 T00721101  RH  028%=      5-min Rain = 0
KSM1 121740Z 17012KT 07/M10 A3022 RMK A01 T00741103  RH  027%=      5-min Rain = 0
KSM1 121745Z 17011KT 08/M10 A3021 RMK A01 T00771103  RH  027%=      5-min Rain = 0
KSM1 121750Z 18012KT 08/M10 A3021 RMK A01 T00791104  RH  027%=      5-min Rain = 0
KSM1 121755Z 17013KT 08/M10 A302 RMK A01 T00821101  RH  027%=      5-min Rain = 0
KSM1 121800Z 18011KT 08/M10 A302 RMK A01 T00841101  RH  026%=      5-min Rain = 0
KSM1 121805Z 17011G16KT 09/M10 A302 RMK A01 T00851099  RH  026%=      5-min Rain = 0
KSM1 121810Z 18011KT 09/M10 A3019 RMK A01 T00871100  RH  026%=      5-min Rain = 0
KSM1 121815Z 17009G14KT 09/M10 A3019 RMK A01 T00891099  RH  026%=      5-min Rain = 0
KSM1 121820Z 18010KT 09/M10 A3019 RMK A01 T00881097  RH  026%=      5-min Rain = 0
KSM1 121825Z 18010KT 09/M09 A3018 RMK A01 T00901092  RH  027%=      5-min Rain = 0
KSM1 121830Z 18011KT 09/M09 A3018 RMK A01 T00941094  RH  026%=      5-min Rain = 0
KSM1 121835Z 18011KT 10/M10 A3018 RMK A01 T00951096  RH  025%=      5-min Rain = 0
KSM1 121840Z 17010KT 10/M09 A3017 RMK A01 T00961090  RH  026%=      5-min Rain = 0
KSM1 121845Z 18010G15KT 10/M09 A3017 RMK A01 T00991092  RH  025%=      5-min Rain = 0
KSM1 121850Z 17009G15KT 10/M09 A3016 RMK A01 T01021090  RH  025%=      5-min Rain = 0
KSM1 121855Z 17013KT 10/M09 A3015 RMK A01 T01031089  RH  025%=      5-min Rain = 0
KSM1 121900Z 17009G14KT 10/M09 A3015 RMK A01 T01031088  RH  026%=      5-min Rain = 0
KSM1 121905Z 18010G17KT 11/M09 A3015 RMK A01 T01071087  RH  025%=      5-min Rain = 0
KSM1 121910Z 18011G16KT 11/M09 A3014 RMK A01 T01091087  RH  025%=      5-min Rain = 0
KSM1 121915Z 19009G14KT 11/M09 A3014 RMK A01 T01101089  RH  024%=      5-min Rain = 0
KSM1 121920Z 19010KT 12/M09 A3013 RMK A01 T01161089  RH  023%=      5-min Rain = 0
KSM1 121925Z 18012KT 11/M09 A3013 RMK A01 T01141087  RH  024%=      5-min Rain = 0
KSM1 121930Z 18010KT 12/M09 A3012 RMK A01 T01161085  RH  024%=      5-min Rain = 0
KSM1 121935Z 20009KT 12/M09 A3012 RMK A01 T01181089  RH  023%=      5-min Rain = 0
KSM1 121940Z 19008G13KT 12/M09 A3012 RMK A01 T01201086  RH  023%=      5-min Rain = 0
KSM1 121945Z 19008KT 12/M09 A3011 RMK A01 T01231086  RH  023%=      5-min Rain = 0
KSM1 121950Z 19009KT 13/M09 A3011 RMK A01 T01261086  RH  022%=      5-min Rain = 0
KSM1 121955Z 19010KT 13/M08 A301 RMK A01 T01291083  RH  022%=      5-min Rain = 0
KSM1 122000Z 18011G16KT 13/M08 A301 RMK A01 T01291083  RH  022%=      5-min Rain = 0
KSM1 122005Z 18009KT 13/M08 A301 RMK A01 T01261084  RH  023%=      5-min Rain = 0
KSM1 122010Z 18008G13KT 13/M08 A301 RMK A01 T01291083  RH  022%=      5-min Rain = 0
KSM1 122015Z 17008KT 13/M08 A301 RMK A01 T01341079  RH  022%=      5-min Rain = 0
KSM1 122020Z 18007G12KT 14/M08 A301 RMK A01 T01351081  RH  022%=      5-min Rain = 0
KSM1 122025Z 17008KT 14/M08 A301 RMK A01 T01381077  RH  022%=      5-min Rain = 0
KSM1 122030Z 18006G11KT 14/M08 A301 RMK A01 T01431078  RH  021%=      5-min Rain = 0
KSM1 122035Z 18007KT 15/M08 A301 RMK A01 T01451077  RH  021%=      5-min Rain = 0
KSM1 122040Z 23006KT 15/M08 A301 RMK A01 T01461083  RH  020%=      5-min Rain = 0
KSM1 122045Z 23008KT 15/M09 A3009 RMK A01 T01461085  RH  020%=      5-min Rain = 0
KSM1 122050Z 24005KT 15/M09 A3009 RMK A01 T01471085  RH  020%=      5-min Rain = 0
KSM1 122055Z 25004KT 15/M09 A3009 RMK A01 T01481086  RH  019%=      5-min Rain = 0
KSM1 122100Z 27004G9KT 15/M09 A3009 RMK A01 T01491085  RH  019%=      5-min Rain = 0
KSM1 122105Z 23004KT 15/M09 A3009 RMK A01 T01511085  RH  019%=      5-min Rain = 0
KSM1 122110Z 21005KT 15/M09 A3009 RMK A01 T01531086  RH  019%=      5-min Rain = 0
KSM1 122115Z 18005KT 15/M08 A3008 RMK A01 T01511084  RH  019%=      5-min Rain = 0
KSM1 122120Z 14001KT 15/M08 A3008 RMK A01 T01541083  RH  019%=      5-min Rain = 0
KSM1 122125Z 19003KT 16/M08 A3008 RMK A01 T01551083  RH  019%=      5-min Rain = 0
KSM1 122130Z 18004KT 16/M08 A3008 RMK A01 T01561084  RH  019%=      5-min Rain = 0
KSM1 122135Z 18003KT 16/M09 A3008 RMK A01 T01561086  RH  018%=      5-min Rain = 0
KSM1 122140Z 15002KT 16/M08 A3008 RMK A01 T01581084  RH  018%=      5-min Rain = 0
KSM1 122145Z 14003KT 16/M08 A3008 RMK A01 T01571083  RH  019%=      5-min Rain = 0
KSM1 122150Z 14002KT 16/M08 A3008 RMK A01 T01561082  RH  019%=      5-min Rain = 0
KSM1 122155Z 22003KT 16/M08 A3008 RMK A01 T01591082  RH  018%=      5-min Rain = 0
KSM1 122200Z 15004KT 16/M09 A3007 RMK A01 T01611086  RH  018%=      5-min Rain = 0
KSM1 122205Z 14004KT 16/M08 A3008 RMK A01 T01601084  RH  018%=      5-min Rain = 0
KSM1 122210Z 16006KT 16/M08 A3008 RMK A01 T01611079  RH  019%=      5-min Rain = 0
KSM1 122215Z 15004KT 16/M08 A3008 RMK A01 T01621081  RH  018%=      5-min Rain = 0
KSM1 122220Z 17003KT 16/M08 A3007 RMK A01 T01621080  RH  018%=      5-min Rain = 0
KSM1 122225Z 16002KT 17/M08 A3007 RMK A01 T01661081  RH  018%=      5-min Rain = 0
KSM1 122230Z 14006KT 16/M07 A3007 RMK A01 T01641074  RH  019%=      5-min Rain = 0
KSM1 122235Z 12006KT 16/M08 A3007 RMK A01 T01611080  RH  019%=      5-min Rain = 0
KSM1 122240Z 15006KT 16/M08 A3007 RMK A01 T01601075  RH  019%=      5-min Rain = 0
KSM1 122245Z 15007KT 16/M07 A3007 RMK A01 T01611067  RH  020%=      5-min Rain = 0
KSM1 122250Z 14007KT 16/M07 A3007 RMK A01 T01581072  RH  020%=      5-min Rain = 0
KSM1 122255Z 14005KT 16/M07 A3007 RMK A01 T01591069  RH  020%=      5-min Rain = 0
KSM1 122300Z 13006KT 16/M07 A3007 RMK A01 T01581069  RH  021%=      5-min Rain = 0
KSM1 122305Z 12009G15KT 16/M07 A3007 RMK A01 T01551071  RH  021%=      5-min Rain = 0
KSM1 122310Z 10013G19KT 14/M08 A3007 RMK A01 T01401084  RH  021%=      5-min Rain = 0
KSM1 122315Z 10016G21KT 13/M09 A3008 RMK A01 T01271088  RH  022%=      5-min Rain = 0
KSM1 122320Z 10014KT 12/M09 A3008 RMK A01 T01241086  RH  022%=      5-min Rain = 0
KSM1 122325Z 10014KT 12/M09 A3008 RMK A01 T01221087  RH  023%=      5-min Rain = 0
KSM1 122330Z 10014KT 12/M09 A3009 RMK A01 T01181088  RH  023%=      5-min Rain = 0
KSM1 122335Z 10014G19KT 12/M09 A3009 RMK A01 T01161088  RH  023%=      5-min Rain = 0
KSM1 122340Z 11015KT 11/M09 A3009 RMK A01 T01141089  RH  024%=      5-min Rain = 0
KSM1 122345Z 10013KT 11/M09 A301 RMK A01 T01111089  RH  024%=      5-min Rain = 0
KSM1 122350Z 10011KT 11/M09 A301 RMK A01 T01081088  RH  025%=      5-min Rain = 0
KSM1 122355Z 10012KT 11/M09 A301 RMK A01 T01051088  RH  025%=      5-min Rain = 0
KSM1 130000Z 11012KT 10/M09 A301 RMK A01 T01031088  RH  025%=      5-min Rain = 0
KSM1 130005Z 11011KT 10/M09 A301 RMK A01 T01001087  RH  026%=      5-min Rain = 0
KSM1 130010Z 11010KT 10/M09 A3011 RMK A01 T00961086  RH  027%=      5-min Rain = 0
KSM1 130015Z 11009KT 09/M09 A3011 RMK A01 T00931088  RH  027%=      5-min Rain = 0
KSM1 130020Z 10009KT 09/M09 A3012 RMK A01 T00911089  RH  027%=      5-min Rain = 0
KSM1 130025Z 10010KT 09/M09 A3012 RMK A01 T00861088  RH  029%=      5-min Rain = 0
KSM1 130030Z 11009KT 08/M09 A3012 RMK A01 T00811087  RH  030%=      5-min Rain = 0
KSM1 130035Z 11009KT 08/M09 A3012 RMK A01 T00811088  RH  030%=      5-min Rain = 0
KSM1 130040Z 10010KT 08/M09 A3013 RMK A01 T00781090  RH  030%=      5-min Rain = 0
KSM1 130045Z 11009KT 07/M09 A3013 RMK A01 T00731089  RH  031%=      5-min Rain = 0
KSM1 130050Z 11009KT 07/M09 A3013 RMK A01 T00721089  RH  031%=      5-min Rain = 0
KSM1 130055Z 11009KT 07/M09 A3013 RMK A01 T00711091  RH  031%=      5-min Rain = 0
KSM1 130100Z 11008KT 07/M09 A3014 RMK A01 T00701092  RH  031%=      5-min Rain = 0
KSM1 130105Z 11008KT 07/M09 A3014 RMK A01 T00671093  RH  031%=      5-min Rain = 0
KSM1 130110Z 11008KT 06/M09 A3014 RMK A01 T00641093  RH  032%=      5-min Rain = 0
KSM1 130115Z 11007KT 06/M09 A3015 RMK A01 T00621094  RH  032%=      5-min Rain = 0
KSM1 130120Z 12007KT 06/M09 A3015 RMK A01 T00591094  RH  033%=      5-min Rain = 0
KSM1 130125Z 12007KT 06/M09 A3015 RMK A01 T00561092  RH  034%=      5-min Rain = 0
KSM1 130130Z 12007KT 05/M09 A3015 RMK A01 T00541093  RH  034%=      5-min Rain = 0
KSM1 130135Z 12008KT 05/M09 A3016 RMK A01 T00541093  RH  034%=      5-min Rain = 0
KSM1 130140Z 13009KT 05/M09 A3016 RMK A01 T00541092  RH  034%=      5-min Rain = 0
KSM1 130145Z 13008KT 05/M09 A3016 RMK A01 T00521093  RH  035%=      5-min Rain = 0
KSM1 130150Z 13009KT 05/M09 A3016 RMK A01 T00491088  RH  037%=      5-min Rain = 0
KSM1 130155Z 13008KT 05/M09 A3016 RMK A01 T00491087  RH  037%=      5-min Rain = 0
KSM1 130200Z 14009KT 05/M09 A3016 RMK A01 T00491088  RH  037%=      5-min Rain = 0
KSM1 130205Z 14009KT 05/M09 A3016 RMK A01 T00511088  RH  036%=      5-min Rain = 0
KSM1 130210Z 13008KT 05/M09 A3017 RMK A01 T00501086  RH  037%=      5-min Rain = 0
KSM1 130215Z 12007KT 05/M09 A3018 RMK A01 T00451085  RH  039%=      5-min Rain = 0
KSM1 130220Z 12006KT 04/M09 A3018 RMK A01 T00421088  RH  039%=      5-min Rain = 0
KSM1 130225Z 11006KT 04/M09 A3019 RMK A01 T00391093  RH  038%=      5-min Rain = 0
KSM1 130230Z 12005KT 04/M09 A3019 RMK A01 T00381090  RH  039%=      5-min Rain = 0
KSM1 130235Z 11004KT 04/M09 A3019 RMK A01 T00361088  RH  040%=      5-min Rain = 0
KSM1 130240Z 09006KT 03/M10 A302 RMK A01 T00291098  RH  039%=      5-min Rain = 0
KSM1 130245Z 08007KT 03/M10 A302 RMK A01 T00261095  RH  041%=      5-min Rain = 0
KSM1 130250Z 09005KT 03/M10 A302 RMK A01 T00281095  RH  041%=      5-min Rain = 0
KSM1 130255Z 09005KT 03/M10 A302 RMK A01 T00291097  RH  040%=      5-min Rain = 0
KSM1 130300Z 07006KT 03/M10 A3021 RMK A01 T00251098  RH  040%=      5-min Rain = 0
KSM1 130305Z 07007KT 02/M10 A3022 RMK A01 T00221095  RH  042%=      5-min Rain = 0
KSM1 130310Z 07007KT 02/M09 A3022 RMK A01 T00211094  RH  043%=      5-min Rain = 0
KSM1 130315Z 06009KT 02/M10 A3023 RMK A01 T00241095  RH  041%=      5-min Rain = 0
KSM1 130320Z 06008KT 03/M10 A3023 RMK A01 T00301098  RH  039%=      5-min Rain = 0
KSM1 130325Z 10008KT 03/M10 A3023 RMK A01 T00261099  RH  040%=      5-min Rain = 0
KSM1 130330Z 09010KT 03/M10 A3023 RMK A01 T00301099  RH  039%=      5-min Rain = 0
KSM1 130335Z 10009KT 04/M10 A3023 RMK A01 T00361103  RH  036%=      5-min Rain = 0
KSM1 130340Z 09009KT 04/M10 A3024 RMK A01 T00351103  RH  036%=      5-min Rain = 0
KSM1 130345Z 10011KT 04/M11 A3024 RMK A01 T00381106  RH  035%=      5-min Rain = 0
KSM1 130350Z 11014G19KT 04/M11 A3024 RMK A01 T00441108  RH  033%=      5-min Rain = 0
KSM1 130355Z 11015KT 05/M11 A3024 RMK A01 T00451107  RH  033%=      5-min Rain = 0
KSM1 130400Z 11016KT 05/M11 A3024 RMK A01 T00451108  RH  032%=      5-min Rain = 0
KSM1 130405Z 10014KT 04/M11 A3025 RMK A01 T00441110  RH  032%=      5-min Rain = 0
KSM1 130410Z 10014KT 04/M11 A3025 RMK A01 T00401112  RH  032%=      5-min Rain = 0
KSM1 130415Z 10013KT 04/M11 A3026 RMK A01 T00361112  RH  033%=      5-min Rain = 0
KSM1 130420Z 08012KT 03/M11 A3027 RMK A01 T00331111  RH  034%=      5-min Rain = 0
KSM1 130425Z 08010KT 03/M11 A3027 RMK A01 T00271108  RH  037%=      5-min Rain = 0
KSM1 130430Z 07010KT 02/M11 A3028 RMK A01 T00231107  RH  038%=      5-min Rain = 0
KSM1 130435Z 08011KT 02/M11 A3028 RMK A01 T00241110  RH  037%=      5-min Rain = 0
KSM1 130440Z 07012KT 03/M11 A3029 RMK A01 T00261111  RH  036%=      5-min Rain = 0
KSM1 130445Z 06012G17KT 03/M11 A303 RMK A01 T00251112  RH  036%=      5-min Rain = 0
KSM1 130450Z 06014G19KT 02/M12 A303 RMK A01 T00221115  RH  036%=      5-min Rain = 0
KSM1 130455Z 07013G18KT 02/M12 A303 RMK A01 T00191117  RH  036%=      5-min Rain = 0
KSM1 130500Z 07013KT 02/M12 A3031 RMK A01 T00171120  RH  036%=      5-min Rain = 0
KSM1 130505Z 07011KT 02/M12 A3031 RMK A01 T00151118  RH  037%=      5-min Rain = 0
KSM1 130510Z 06013G18KT 01/M12 A3032 RMK A01 T00141119  RH  037%=      5-min Rain = 0
KSM1 130515Z 07013KT 01/M12 A3032 RMK A01 T00131120  RH  037%=      5-min Rain = 0
KSM1 130520Z 06013G18KT 01/M12 A3033 RMK A01 T00121122  RH  037%=      5-min Rain = 0
KSM1 130525Z 06011KT 01/M12 A3033 RMK A01 T00101123  RH  037%=      5-min Rain = 0
KSM1 130530Z 06012KT 01/M12 A3033 RMK A01 T00091123  RH  037%=      5-min Rain = 0
KSM1 130535Z 06012KT 01/M12 A3033 RMK A01 T00081123  RH  037%=      5-min Rain = 0
KSM1 130540Z 05012KT 01/M12 A3034 RMK A01 T00071123  RH  038%=      5-min Rain = 0
KSM1 130545Z 06013G18KT 01/M13 A3034 RMK A01 T00061125  RH  037%=      5-min Rain = 0
KSM1 130550Z 06013KT 01/M13 A3034 RMK A01 T00051127  RH  037%=      5-min Rain = 0
KSM1 130555Z 05013KT 00/M13 A3035 RMK A01 T00031128  RH  037%=      5-min Rain = 0

Page generated in 0.0242 seconds.